Bass Brook, Minnesota
Current Conditions -  °F | °C
As of 10:15 AM on Monday 24 Nov 2014 (Local Time) from KGPZ Reporting Station
Overcast Overcast  
Wind Chill: -1°   Ceiling: 1400
Heat Index: 18°   Visibility: 8mi
Dew Point: 12°   Wind: 25mph
Humidity: 79%   Direction: 330°NNW
Pressure: 29.43"   Gusts: 31mph
Location:  47.2371°N, 93.6985°W
Report Text: KGPZ 241615Z AUTO 33022G27KT 8SM OVC014 M08/M11 A2943 RMK AO1
Loading
Personal Weather Stations






























Interactive Weather Map New forecast layout! Learn more

10-Day Weather Forecast

Advertisements
Track Severe Weather on mobile